sensor_id;sensor_type;location;lat;lon;timestamp;pressure;altitude;pressure_sealevel;temperature;humidity
62655;BME280;48717;55.556;37.816;2024-01-30T00:00:01;100527.00;;;-2.59;100.00
62655;BME280;48717;55.556;37.816;2024-01-30T00:02:32;100529.88;;;-2.54;100.00
62655;BME280;48717;55.556;37.816;2024-01-30T00:04:59;100510.63;;;-2.59;100.00
62655;BME280;48717;55.556;37.816;2024-01-30T00:07:27;100506.53;;;-2.56;100.00
62655;BME280;48717;55.556;37.816;2024-01-30T00:09:55;100503.34;;;-2.52;100.00
62655;BME280;48717;55.556;37.816;2024-01-30T00:12:22;100504.44;;;-2.62;100.00
62655;BME280;48717;55.556;37.816;2024-01-30T00:14:49;100478.97;;;-2.70;100.00
62655;BME280;48717;55.556;37.816;2024-01-30T00:17:21;100493.31;;;-2.60;100.00
62655;BME280;48717;55.556;37.816;2024-01-30T00:19:48;100509.72;;;-2.60;100.00
62655;BME280;48717;55.556;37.816;2024-01-30T00:22:16;100494.03;;;-2.63;100.00
62655;BME280;48717;55.556;37.816;2024-01-30T00:24:44;100509.22;;;-2.54;100.00
62655;BME280;48717;55.556;37.816;2024-01-30T00:27:11;100497.50;;;-2.63;100.00
62655;BME280;48717;55.556;37.816;2024-01-30T00:29:38;100497.97;;;-2.55;100.00
62655;BME280;48717;55.556;37.816;2024-01-30T00:32:06;100513.19;;;-2.46;100.00
62655;BME280;48717;55.556;37.816;2024-01-30T00:34:33;100507.00;;;-2.48;100.00
62655;BME280;48717;55.556;37.816;2024-01-30T00:37:07;100499.66;;;-2.42;100.00
62655;BME280;48717;55.556;37.816;2024-01-30T00:39:34;100508.19;;;-2.43;100.00
62655;BME280;48717;55.556;37.816;2024-01-30T00:42:02;100508.03;;;-2.46;100.00
62655;BME280;48717;55.556;37.816;2024-01-30T00:44:29;100483.25;;;-2.42;100.00
62655;BME280;48717;55.556;37.816;2024-01-30T00:46:56;100500.75;;;-2.38;100.00
62655;BME280;48717;55.556;37.816;2024-01-30T00:49:24;100491.09;;;-2.41;100.00
62655;BME280;48717;55.556;37.816;2024-01-30T00:51:53;100489.59;;;-2.37;100.00
62655;BME280;48717;55.556;37.816;2024-01-30T00:54:20;100476.69;;;-2.37;100.00
62655;BME280;48717;55.556;37.816;2024-01-30T00:56:47;100464.88;;;-2.47;100.00
62655;BME280;48717;55.556;37.816;2024-01-30T00:59:14;100497.34;;;-2.37;100.00
62655;BME280;48717;55.556;37.816;2024-01-30T01:01:42;100491.97;;;-2.40;100.00
62655;BME280;48717;55.556;37.816;2024-01-30T01:04:09;100487.72;;;-2.40;100.00
62655;BME280;48717;55.556;37.816;2024-01-30T01:06:36;100488.09;;;-2.33;100.00
62655;BME280;48717;55.556;37.816;2024-01-30T01:09:08;100477.69;;;-2.35;100.00
62655;BME280;48717;55.556;37.816;2024-01-30T01:11:43;100491.69;;;-2.31;100.00
62655;BME280;48717;55.556;37.816;2024-01-30T01:14:13;100483.13;;;-2.30;100.00
62655;BME280;48717;55.556;37.816;2024-01-30T01:16:40;100480.84;;;-2.26;100.00
62655;BME280;48717;55.556;37.816;2024-01-30T01:19:07;100473.78;;;-2.28;100.00
62655;BME280;48717;55.556;37.816;2024-01-30T01:21:35;100486.72;;;-2.28;100.00
62655;BME280;48717;55.556;37.816;2024-01-30T01:24:03;100467.00;;;-2.26;100.00
62655;BME280;48717;55.556;37.816;2024-01-30T01:26:30;100478.16;;;-2.27;100.00
62655;BME280;48717;55.556;37.816;2024-01-30T01:28:58;100455.50;;;-2.31;100.00
62655;BME280;48717;55.556;37.816;2024-01-30T01:31:25;100477.81;;;-2.18;100.00
62655;BME280;48717;55.556;37.816;2024-01-30T01:33:56;100474.34;;;-2.19;100.00
62655;BME280;48717;55.556;37.816;2024-01-30T01:36:24;100486.66;;;-2.15;100.00
62655;BME280;48717;55.556;37.816;2024-01-30T01:38:51;100466.25;;;-2.10;100.00
62655;BME280;48717;55.556;37.816;2024-01-30T01:41:18;100471.06;;;-2.16;99.87
62655;BME280;48717;55.556;37.816;2024-01-30T01:43:46;100464.47;;;-2.11;100.00
62655;BME280;48717;55.556;37.816;2024-01-30T01:46:13;100462.00;;;-2.10;100.00
62655;BME280;48717;55.556;37.816;2024-01-30T01:48:41;100472.50;;;-2.06;99.88
62655;BME280;48717;55.556;37.816;2024-01-30T01:51:10;100463.97;;;-2.05;99.96
62655;BME280;48717;55.556;37.816;2024-01-30T01:53:37;100457.78;;;-2.07;100.00
62655;BME280;48717;55.556;37.816;2024-01-30T01:56:05;100446.47;;;-2.10;100.00
62655;BME280;48717;55.556;37.816;2024-01-30T01:58:33;100470.72;;;-2.07;99.91
62655;BME280;48717;55.556;37.816;2024-01-30T02:01:01;100456.91;;;-2.08;100.00
62655;BME280;48717;55.556;37.816;2024-01-30T02:03:30;100453.00;;;-2.01;100.00
62655;BME280;48717;55.556;37.816;2024-01-30T02:05:58;100443.63;;;-1.99;99.78
62655;BME280;48717;55.556;37.816;2024-01-30T02:08:25;100457.56;;;-1.97;99.81
62655;BME280;48717;55.556;37.816;2024-01-30T02:10:53;100449.88;;;-1.95;100.00
62655;BME280;48717;55.556;37.816;2024-01-30T02:13:21;100433.09;;;-2.02;99.88
62655;BME280;48717;55.556;37.816;2024-01-30T02:15:49;100439.00;;;-1.90;99.14
62655;BME280;48717;55.556;37.816;2024-01-30T02:18:19;100436.19;;;-1.94;99.30
62655;BME280;48717;55.556;37.816;2024-01-30T02:21:04;100441.34;;;-1.94;99.69
62655;BME280;48717;55.556;37.816;2024-01-30T02:23:33;100431.78;;;-1.95;99.84
62655;BME280;48717;55.556;37.816;2024-01-30T02:26:01;100440.97;;;-1.86;99.20
62655;BME280;48717;55.556;37.816;2024-01-30T02:28:29;100440.78;;;-1.89;100.00
62655;BME280;48717;55.556;37.816;2024-01-30T02:30:56;100427.44;;;-1.81;99.54
62655;BME280;48717;55.556;37.816;2024-01-30T02:33:23;100429.31;;;-1.79;99.00
62655;BME280;48717;55.556;37.816;2024-01-30T02:35:51;100446.06;;;-1.72;99.21
62655;BME280;48717;55.556;37.816;2024-01-30T02:38:18;100442.63;;;-1.73;99.09
62655;BME280;48717;55.556;37.816;2024-01-30T02:40:45;100445.44;;;-1.68;98.50
62655;BME280;48717;55.556;37.816;2024-01-30T02:43:12;100447.41;;;-1.64;98.95
62655;BME280;48717;55.556;37.816;2024-01-30T02:45:40;100447.41;;;-1.64;98.55
62655;BME280;48717;55.556;37.816;2024-01-30T02:48:08;100430.56;;;-1.72;98.81
62655;BME280;48717;55.556;37.816;2024-01-30T02:50:35;100431.00;;;-1.64;98.53
62655;BME280;48717;55.556;37.816;2024-01-30T02:53:02;100420.13;;;-1.59;98.15
62655;BME280;48717;55.556;37.816;2024-01-30T02:55:30;100430.66;;;-1.55;98.54
62655;BME280;48717;55.556;37.816;2024-01-30T02:57:57;100444.84;;;-1.49;98.82
62655;BME280;48717;55.556;37.816;2024-01-30T03:00:25;100444.94;;;-1.47;98.10
62655;BME280;48717;55.556;37.816;2024-01-30T03:02:52;100441.63;;;-1.45;97.87
62655;BME280;48717;55.556;37.816;2024-01-30T03:05:19;100421.13;;;-1.56;98.13
62655;BME280;48717;55.556;37.816;2024-01-30T03:07:47;100445.91;;;-1.45;98.85
62655;BME280;48717;55.556;37.816;2024-01-30T03:10:14;100424.06;;;-1.50;97.93
62655;BME280;48717;55.556;37.816;2024-01-30T03:12:41;100427.97;;;-1.42;98.34
62655;BME280;48717;55.556;37.816;2024-01-30T03:15:09;100427.16;;;-1.41;97.46
62655;BME280;48717;55.556;37.816;2024-01-30T03:17:36;100442.59;;;-1.42;97.44
62655;BME280;48717;55.556;37.816;2024-01-30T03:20:05;100435.09;;;-1.38;97.66
62655;BME280;48717;55.556;37.816;2024-01-30T03:22:33;100465.53;;;-1.34;97.69
62655;BME280;48717;55.556;37.816;2024-01-30T03:25:00;100446.72;;;-1.46;98.20
62655;BME280;48717;55.556;37.816;2024-01-30T03:27:31;100452.69;;;-1.32;97.13
62655;BME280;48717;55.556;37.816;2024-01-30T03:29:58;100461.31;;;-1.32;97.77
62655;BME280;48717;55.556;37.816;2024-01-30T03:32:25;100456.00;;;-1.35;97.38
62655;BME280;48717;55.556;37.816;2024-01-30T03:34:53;100439.94;;;-1.44;97.68
62655;BME280;48717;55.556;37.816;2024-01-30T03:37:21;100445.63;;;-1.35;97.61
62655;BME280;48717;55.556;37.816;2024-01-30T03:39:48;100459.72;;;-1.29;97.90
62655;BME280;48717;55.556;37.816;2024-01-30T03:42:15;100452.59;;;-1.34;97.63
62655;BME280;48717;55.556;37.816;2024-01-30T03:44:43;100448.03;;;-1.38;98.22
62655;BME280;48717;55.556;37.816;2024-01-30T03:47:10;100456.16;;;-1.32;97.99
62655;BME280;48717;55.556;37.816;2024-01-30T03:49:37;100463.28;;;-1.27;98.10
62655;BME280;48717;55.556;37.816;2024-01-30T03:52:05;100459.53;;;-1.33;98.39
62655;BME280;48717;55.556;37.816;2024-01-30T03:54:32;100455.50;;;-1.27;98.06
62655;BME280;48717;55.556;37.816;2024-01-30T03:56:59;100458.09;;;-1.27;98.13
62655;BME280;48717;55.556;37.816;2024-01-30T03:59:27;100454.66;;;-1.28;97.95
62655;BME280;48717;55.556;37.816;2024-01-30T04:01:54;100455.25;;;-1.17;97.72
62655;BME280;48717;55.556;37.816;2024-01-30T04:04:23;100456.13;;;-1.16;97.20
62655;BME280;48717;55.556;37.816;2024-01-30T04:06:51;100457.38;;;-1.10;97.55
62655;BME280;48717;55.556;37.816;2024-01-30T04:09:18;100465.59;;;-1.17;97.63
62655;BME280;48717;55.556;37.816;2024-01-30T04:11:46;100459.81;;;-1.13;98.07
62655;BME280;48717;55.556;37.816;2024-01-30T04:14:13;100470.94;;;-1.14;97.85
62655;BME280;48717;55.556;37.816;2024-01-30T04:16:40;100464.88;;;-1.14;98.25
62655;BME280;48717;55.556;37.816;2024-01-30T04:19:07;100457.38;;;-1.10;97.18
62655;BME280;48717;55.556;37.816;2024-01-30T04:21:35;100473.34;;;-1.02;97.57
62655;BME280;48717;55.556;37.816;2024-01-30T04:24:02;100437.69;;;-1.23;97.41
62655;BME280;48717;55.556;37.816;2024-01-30T04:26:30;100474.31;;;-1.00;97.30
62655;BME280;48717;55.556;37.816;2024-01-30T04:28:58;100469.22;;;-0.98;97.13
62655;BME280;48717;55.556;37.816;2024-01-30T04:31:25;100475.56;;;-0.93;97.32
62655;BME280;48717;55.556;37.816;2024-01-30T04:33:52;100474.00;;;-0.89;96.44
62655;BME280;48717;55.556;37.816;2024-01-30T04:36:19;100453.06;;;-0.94;96.68
62655;BME280;48717;55.556;37.816;2024-01-30T04:38:47;100458.56;;;-0.88;96.98
62655;BME280;48717;55.556;37.816;2024-01-30T04:41:14;100468.47;;;-0.81;96.70
62655;BME280;48717;55.556;37.816;2024-01-30T04:43:41;100462.31;;;-0.83;96.13
62655;BME280;48717;55.556;37.816;2024-01-30T04:46:09;100445.09;;;-0.82;96.37
62655;BME280;48717;55.556;37.816;2024-01-30T04:48:36;100437.41;;;-0.81;96.61
62655;BME280;48717;55.556;37.816;2024-01-30T04:51:04;100452.31;;;-0.76;95.86
62655;BME280;48717;55.556;37.816;2024-01-30T04:53:32;100468.00;;;-0.73;96.51
62655;BME280;48717;55.556;37.816;2024-01-30T04:55:59;100463.63;;;-0.74;96.30
62655;BME280;48717;55.556;37.816;2024-01-30T04:58:26;100457.63;;;-0.73;97.05
62655;BME280;48717;55.556;37.816;2024-01-30T05:00:54;100460.50;;;-0.69;96.20
62655;BME280;48717;55.556;37.816;2024-01-30T05:03:22;100471.56;;;-0.71;95.93
62655;BME280;48717;55.556;37.816;2024-01-30T05:05:51;100469.94;;;-0.69;96.10
62655;BME280;48717;55.556;37.816;2024-01-30T05:08:18;100489.06;;;-0.67;95.75
62655;BME280;48717;55.556;37.816;2024-01-30T05:10:46;100472.72;;;-0.66;96.91
62655;BME280;48717;55.556;37.816;2024-01-30T05:13:13;100478.94;;;-0.62;96.32
62655;BME280;48717;55.556;37.816;2024-01-30T05:15:41;100485.19;;;-0.59;95.57
62655;BME280;48717;55.556;37.816;2024-01-30T05:18:08;100466.97;;;-0.60;95.62
62655;BME280;48717;55.556;37.816;2024-01-30T05:20:36;100482.84;;;-0.54;96.35
62655;BME280;48717;55.556;37.816;2024-01-30T05:23:03;100480.25;;;-0.54;96.21
62655;BME280;48717;55.556;37.816;2024-01-30T05:25:31;100476.94;;;-0.51;96.32
62655;BME280;48717;55.556;37.816;2024-01-30T05:27:59;100491.69;;;-0.50;96.66
62655;BME280;48717;55.556;37.816;2024-01-30T05:30:26;100463.50;;;-0.61;96.46
62655;BME280;48717;55.556;37.816;2024-01-30T05:32:54;100473.72;;;-0.47;95.87
62655;BME280;48717;55.556;37.816;2024-01-30T05:35:21;100471.69;;;-0.53;96.70
62655;BME280;48717;55.556;37.816;2024-01-30T05:37:49;100458.66;;;-0.55;96.35
62655;BME280;48717;55.556;37.816;2024-01-30T05:40:17;100471.94;;;-0.48;96.28
62655;BME280;48717;55.556;37.816;2024-01-30T05:42:45;100460.44;;;-0.54;95.44
62655;BME280;48717;55.556;37.816;2024-01-30T05:45:14;100480.84;;;-0.43;95.65
62655;BME280;48717;55.556;37.816;2024-01-30T05:47:41;100469.75;;;-0.41;95.41
62655;BME280;48717;55.556;37.816;2024-01-30T05:50:09;100466.19;;;-0.43;95.69
62655;BME280;48717;55.556;37.816;2024-01-30T05:52:36;100469.28;;;-0.33;96.36
62655;BME280;48717;55.556;37.816;2024-01-30T05:55:04;100454.94;;;-0.43;95.58
62655;BME280;48717;55.556;37.816;2024-01-30T05:57:33;100482.16;;;-0.35;95.13
62655;BME280;48717;55.556;37.816;2024-01-30T06:00:00;100476.09;;;-0.35;95.55
62655;BME280;48717;55.556;37.816;2024-01-30T06:02:31;100489.09;;;-0.34;95.36
62655;BME280;48717;55.556;37.816;2024-01-30T06:04:58;100488.78;;;-0.40;96.41
62655;BME280;48717;55.556;37.816;2024-01-30T06:07:26;100493.66;;;-0.30;96.42
62655;BME280;48717;55.556;37.816;2024-01-30T06:09:53;100478.59;;;-0.37;95.59
62655;BME280;48717;55.556;37.816;2024-01-30T06:12:22;100491.06;;;-0.30;96.27
62655;BME280;48717;55.556;37.816;2024-01-30T06:14:49;100496.16;;;-0.31;95.77
62655;BME280;48717;55.556;37.816;2024-01-30T06:17:17;100507.84;;;-0.23;95.84
62655;BME280;48717;55.556;37.816;2024-01-30T06:19:44;100506.97;;;-0.23;96.24
62655;BME280;48717;55.556;37.816;2024-01-30T06:22:12;100482.31;;;-0.32;95.44
62655;BME280;48717;55.556;37.816;2024-01-30T06:24:39;100494.97;;;-0.21;96.45
62655;BME280;48717;55.556;37.816;2024-01-30T06:27:07;100508.31;;;-0.14;96.23
62655;BME280;48717;55.556;37.816;2024-01-30T06:29:36;100484.41;;;-0.24;95.70
62655;BME280;48717;55.556;37.816;2024-01-30T06:32:04;100495.13;;;-0.18;95.93
62655;BME280;48717;55.556;37.816;2024-01-30T06:34:31;100493.00;;;-0.25;96.67
62655;BME280;48717;55.556;37.816;2024-01-30T06:36:59;100493.34;;;-0.19;96.24
62655;BME280;48717;55.556;37.816;2024-01-30T06:39:26;100497.81;;;-0.17;96.00
62655;BME280;48717;55.556;37.816;2024-01-30T06:41:54;100510.28;;;-0.09;96.51
62655;BME280;48717;55.556;37.816;2024-01-30T06:44:21;100508.50;;;-0.10;96.79
62655;BME280;48717;55.556;37.816;2024-01-30T06:46:48;100507.94;;;-0.05;96.83
62655;BME280;48717;55.556;37.816;2024-01-30T06:49:16;100511.50;;;-0.03;95.75
62655;BME280;48717;55.556;37.816;2024-01-30T06:51:43;100515.06;;;-0.01;96.11
62655;BME280;48717;55.556;37.816;2024-01-30T06:54:11;100499.91;;;-0.09;96.16
62655;BME280;48717;55.556;37.816;2024-01-30T06:56:38;100515.25;;;0.03;96.40
62655;BME280;48717;55.556;37.816;2024-01-30T06:59:05;100515.31;;;0.04;96.05
62655;BME280;48717;55.556;37.816;2024-01-30T07:01:33;100517.19;;;0.07;95.47
62655;BME280;48717;55.556;37.816;2024-01-30T07:04:03;100513.22;;;0.14;96.01
62655;BME280;48717;55.556;37.816;2024-01-30T07:06:31;100519.75;;;0.23;95.37
62655;BME280;48717;55.556;37.816;2024-01-30T07:08:58;100515.22;;;0.19;95.30
62655;BME280;48717;55.556;37.816;2024-01-30T07:11:25;100528.28;;;0.21;95.14
62655;BME280;48717;55.556;37.816;2024-01-30T07:13:53;100521.06;;;0.15;95.16
62655;BME280;48717;55.556;37.816;2024-01-30T07:16:21;100530.31;;;0.27;94.51
62655;BME280;48717;55.556;37.816;2024-01-30T07:18:49;100540.75;;;0.28;95.13
62655;BME280;48717;55.556;37.816;2024-01-30T07:21:17;100528.66;;;0.29;94.57
62655;BME280;48717;55.556;37.816;2024-01-30T07:23:44;100526.75;;;0.24;94.85
62655;BME280;48717;55.556;37.816;2024-01-30T07:26:12;100535.66;;;0.30;95.37
62655;BME280;48717;55.556;37.816;2024-01-30T07:28:39;100531.25;;;0.29;94.94
62655;BME280;48717;55.556;37.816;2024-01-30T07:31:07;100513.28;;;0.15;95.02
62655;BME280;48717;55.556;37.816;2024-01-30T07:33:34;100537.25;;;0.28;94.90
62655;BME280;48717;55.556;37.816;2024-01-30T07:36:02;100528.00;;;0.33;94.83
62655;BME280;48717;55.556;37.816;2024-01-30T07:38:34;100534.75;;;0.29;95.36
62655;BME280;48717;55.556;37.816;2024-01-30T07:41:01;100530.47;;;0.30;95.54
62655;BME280;48717;55.556;37.816;2024-01-30T07:43:28;100520.09;;;0.30;94.65
62655;BME280;48717;55.556;37.816;2024-01-30T07:45:56;100535.22;;;0.38;94.84
62655;BME280;48717;55.556;37.816;2024-01-30T07:48:23;100534.19;;;0.35;94.26
62655;BME280;48717;55.556;37.816;2024-01-30T07:50:51;100534.19;;;0.35;94.23
62655;BME280;48717;55.556;37.816;2024-01-30T07:53:18;100546.66;;;0.42;94.72
62655;BME280;48717;55.556;37.816;2024-01-30T07:55:46;100543.41;;;0.46;94.54
62655;BME280;48717;55.556;37.816;2024-01-30T07:58:14;100539.84;;;0.44;94.50
62655;BME280;48717;55.556;37.816;2024-01-30T08:00:41;100538.38;;;0.49;94.43
62655;BME280;48717;55.556;37.816;2024-01-30T08:03:09;100539.13;;;0.47;94.88
62655;BME280;48717;55.556;37.816;2024-01-30T08:05:37;100551.53;;;0.52;94.28
62655;BME280;48717;55.556;37.816;2024-01-30T08:08:06;100543.56;;;0.49;95.22
62655;BME280;48717;55.556;37.816;2024-01-30T08:10:34;100531.59;;;0.51;94.31
62655;BME280;48717;55.556;37.816;2024-01-30T08:13:01;100544.66;;;0.71;94.52
62655;BME280;48717;55.556;37.816;2024-01-30T08:15:29;100525.69;;;0.72;93.98
62655;BME280;48717;55.556;37.816;2024-01-30T08:17:57;100528.28;;;0.72;93.08
62655;BME280;48717;55.556;37.816;2024-01-30T08:20:26;100531.97;;;0.77;92.75
62655;BME280;48717;55.556;37.816;2024-01-30T08:22:53;100534.16;;;0.86;92.84
62655;BME280;48717;55.556;37.816;2024-01-30T08:25:20;100540.41;;;0.90;92.05
62655;BME280;48717;55.556;37.816;2024-01-30T08:27:49;100528.91;;;0.85;92.11
62655;BME280;48717;55.556;37.816;2024-01-30T08:30:16;100528.06;;;0.86;92.47
62655;BME280;48717;55.556;37.816;2024-01-30T08:32:43;100526.28;;;0.85;92.34
62655;BME280;48717;55.556;37.816;2024-01-30T08:35:11;100528.25;;;0.89;91.79
62655;BME280;48717;55.556;37.816;2024-01-30T08:37:41;100526.63;;;0.91;92.12
62655;BME280;48717;55.556;37.816;2024-01-30T08:40:10;100531.06;;;0.94;92.04
62655;BME280;48717;55.556;37.816;2024-01-30T08:42:38;100530.47;;;0.99;92.36
62655;BME280;48717;55.556;37.816;2024-01-30T08:45:05;100533.22;;;1.02;92.01
62655;BME280;48717;55.556;37.816;2024-01-30T08:47:33;100525.44;;;1.02;91.85
62655;BME280;48717;55.556;37.816;2024-01-30T08:50:00;100515.03;;;1.02;91.88
62655;BME280;48717;55.556;37.816;2024-01-30T08:52:31;100527.19;;;1.03;91.48
62655;BME280;48717;55.556;37.816;2024-01-30T08:55:00;100519.78;;;0.93;91.86
62655;BME280;48717;55.556;37.816;2024-01-30T08:57:30;100513.75;;;0.94;92.44
62655;BME280;48717;55.556;37.816;2024-01-30T08:59:57;100519.19;;;0.99;92.62
62655;BME280;48717;55.556;37.816;2024-01-30T09:02:24;100517.84;;;0.89;92.42
62655;BME280;48717;55.556;37.816;2024-01-30T09:04:52;100522.22;;;0.90;92.74
62655;BME280;48717;55.556;37.816;2024-01-30T09:07:19;100526.75;;;0.94;93.20
62655;BME280;48717;55.556;37.816;2024-01-30T09:09:47;100508.94;;;0.84;92.66
62655;BME280;48717;55.556;37.816;2024-01-30T09:12:14;100534.25;;;0.88;92.47
62655;BME280;48717;55.556;37.816;2024-01-30T09:14:42;100521.28;;;0.88;92.92
62655;BME280;48717;55.556;37.816;2024-01-30T09:17:09;100514.97;;;0.83;93.09
62655;BME280;48717;55.556;37.816;2024-01-30T09:19:36;100535.19;;;0.90;93.10
62655;BME280;48717;55.556;37.816;2024-01-30T09:22:04;100529.28;;;0.93;92.84
62655;BME280;48717;55.556;37.816;2024-01-30T09:24:31;100536.47;;;0.98;92.71
62655;BME280;48717;55.556;37.816;2024-01-30T09:26:59;100523.34;;;0.95;92.80
62655;BME280;48717;55.556;37.816;2024-01-30T09:29:27;100519.34;;;0.84;91.75
62655;BME280;48717;55.556;37.816;2024-01-30T09:31:54;100541.59;;;0.97;92.37
62655;BME280;48717;55.556;37.816;2024-01-30T09:34:22;100518.66;;;0.88;91.87
62655;BME280;48717;55.556;37.816;2024-01-30T09:36:49;100526.00;;;0.97;92.07
62655;BME280;48717;55.556;37.816;2024-01-30T09:39:16;100531.94;;;0.94;92.43
62655;BME280;48717;55.556;37.816;2024-01-30T09:44:47;100521.28;;;0.88;91.96
62655;BME280;48717;55.556;37.816;2024-01-30T09:47:17;100520.38;;;0.87;91.48
62655;BME280;48717;55.556;37.816;2024-01-30T09:49:45;100531.13;;;0.95;91.98
62655;BME280;48717;55.556;37.816;2024-01-30T09:52:13;100520.22;;;1.02;91.97
62655;BME280;48717;55.556;37.816;2024-01-30T09:54:43;100527.53;;;1.10;91.98
62655;BME280;48717;55.556;37.816;2024-01-30T09:57:11;100515.78;;;1.00;91.68
62655;BME280;48717;55.556;37.816;2024-01-30T09:59:39;100518.25;;;1.15;91.48
62655;BME280;48717;55.556;37.816;2024-01-30T10:02:07;100507.53;;;1.09;91.83
62655;BME280;48717;55.556;37.816;2024-01-30T10:04:35;100509.25;;;1.08;91.39
62655;BME280;48717;55.556;37.816;2024-01-30T10:07:03;100512.22;;;1.16;91.81
62655;BME280;48717;55.556;37.816;2024-01-30T10:09:34;100508.97;;;1.20;91.04
62655;BME280;48717;55.556;37.816;2024-01-30T10:12:04;100482.59;;;0.94;91.28
62655;BME280;48717;55.556;37.816;2024-01-30T10:14:33;100505.53;;;1.21;91.19
62655;BME280;48717;55.556;37.816;2024-01-30T10:17:01;100514.22;;;1.22;91.61
62655;BME280;48717;55.556;37.816;2024-01-30T10:19:32;100500.22;;;1.18;91.50
62655;BME280;48717;55.556;37.816;2024-01-30T10:22:00;100510.72;;;1.21;91.73
62655;BME280;48717;55.556;37.816;2024-01-30T10:24:27;100529.75;;;1.20;91.10
62655;BME280;48717;55.556;37.816;2024-01-30T10:26:56;100534.09;;;1.21;91.57
62655;BME280;48717;55.556;37.816;2024-01-30T10:29:24;100510.13;;;1.09;91.72
62655;BME280;48717;55.556;37.816;2024-01-30T10:32:02;100524.53;;;1.20;91.36
62655;BME280;48717;55.556;37.816;2024-01-30T10:34:30;100530.31;;;1.14;91.26
62655;BME280;48717;55.556;37.816;2024-01-30T10:37:09;100508.50;;;1.11;91.17
62655;BME280;48717;55.556;37.816;2024-01-30T10:39:46;100519.56;;;1.07;91.38
62655;BME280;48717;55.556;37.816;2024-01-30T10:42:15;100523.94;;;1.08;91.58
62655;BME280;48717;55.556;37.816;2024-01-30T10:47:26;100527.38;;;1.07;91.88
62655;BME280;48717;55.556;37.816;2024-01-30T10:49:57;100522.75;;;1.01;91.63
62655;BME280;48717;55.556;37.816;2024-01-30T10:52:25;100509.41;;;0.93;91.64
62655;BME280;48717;55.556;37.816;2024-01-30T10:54:54;100521.94;;;1.02;91.63
62655;BME280;48717;55.556;37.816;2024-01-30T10:57:23;100524.69;;;1.05;92.04
62655;BME280;48717;55.556;37.816;2024-01-30T10:59:53;100510.75;;;1.03;91.96
62655;BME280;48717;55.556;37.816;2024-01-30T11:02:23;100533.50;;;1.09;91.43
62655;BME280;48717;55.556;37.816;2024-01-30T11:04:56;100523.28;;;1.12;91.81
62655;BME280;48717;55.556;37.816;2024-01-30T11:07:26;100517.78;;;1.06;91.96
62655;BME280;48717;55.556;37.816;2024-01-30T11:12:25;100522.31;;;1.10;92.28
62655;BME280;48717;55.556;37.816;2024-01-30T11:15:09;100508.00;;;1.00;91.64
62655;BME280;48717;55.556;37.816;2024-01-30T11:20:31;100531.06;;;1.12;92.20
62655;BME280;48717;55.556;37.816;2024-01-30T11:22:59;100519.41;;;1.03;92.11
62655;BME280;48717;55.556;37.816;2024-01-30T11:25:33;100524.38;;;1.17;91.81
62655;BME280;48717;55.556;37.816;2024-01-30T11:28:01;100534.03;;;1.20;91.53
62655;BME280;48717;55.556;37.816;2024-01-30T11:30:30;100517.25;;;1.13;91.85
62655;BME280;48717;55.556;37.816;2024-01-30T11:33:01;100532.41;;;1.22;91.64
62655;BME280;48717;55.556;37.816;2024-01-30T11:35:36;100502.34;;;1.09;91.59
62655;BME280;48717;55.556;37.816;2024-01-30T11:38:04;100515.63;;;1.15;91.89
62655;BME280;48717;55.556;37.816;2024-01-30T11:40:33;100522.09;;;1.23;91.86
62655;BME280;48717;55.556;37.816;2024-01-30T11:43:02;100524.69;;;1.23;91.75
62655;BME280;48717;55.556;37.816;2024-01-30T11:45:30;100518.09;;;1.30;91.45
62655;BME280;48717;55.556;37.816;2024-01-30T11:47:58;100531.84;;;1.27;91.50
62655;BME280;48717;55.556;37.816;2024-01-30T11:50:35;100527.06;;;1.37;91.39
62655;BME280;48717;55.556;37.816;2024-01-30T11:53:05;100526.75;;;1.30;91.62
62655;BME280;48717;55.556;37.816;2024-01-30T11:55:33;100514.31;;;1.23;91.26
62655;BME280;48717;55.556;37.816;2024-01-30T11:58:03;100544.16;;;1.32;91.47
62655;BME280;48717;55.556;37.816;2024-01-30T12:00:34;100534.72;;;1.34;91.67
62655;BME280;48717;55.556;37.816;2024-01-30T12:03:03;100547.53;;;1.30;91.57
62655;BME280;48717;55.556;37.816;2024-01-30T12:05:30;100539.38;;;1.23;91.12
62655;BME280;48717;55.556;37.816;2024-01-30T12:07:59;100554.78;;;1.18;91.30
62655;BME280;48717;55.556;37.816;2024-01-30T12:10:28;100548.44;;;1.13;91.42
62655;BME280;48717;55.556;37.816;2024-01-30T12:12:56;100569.22;;;1.13;91.80
62655;BME280;48717;55.556;37.816;2024-01-30T12:15:25;100558.69;;;1.10;92.16
62655;BME280;48717;55.556;37.816;2024-01-30T12:18:04;100546.94;;;1.00;91.88
62655;BME280;48717;55.556;37.816;2024-01-30T12:20:31;100552.06;;;0.98;92.54
62655;BME280;48717;55.556;37.816;2024-01-30T12:23:00;100560.59;;;0.96;92.75
62655;BME280;48717;55.556;37.816;2024-01-30T12:25:27;100561.34;;;0.93;92.70
62655;BME280;48717;55.556;37.816;2024-01-30T12:27:54;100540.09;;;0.84;92.81
62655;BME280;48717;55.556;37.816;2024-01-30T12:30:22;100568.38;;;0.96;92.56
62655;BME280;48717;55.556;37.816;2024-01-30T12:32:51;100552.88;;;0.97;92.92
62655;BME280;48717;55.556;37.816;2024-01-30T12:35:20;100559.84;;;0.98;93.24
62655;BME280;48717;55.556;37.816;2024-01-30T12:37:49;100555.56;;;0.99;92.87
62655;BME280;48717;55.556;37.816;2024-01-30T12:40:18;100562.63;;;1.01;92.59
62655;BME280;48717;55.556;37.816;2024-01-30T12:42:51;100562.69;;;1.03;92.89
62655;BME280;48717;55.556;37.816;2024-01-30T12:45:20;100550.94;;;0.93;92.83
62655;BME280;48717;55.556;37.816;2024-01-30T12:47:50;100576.41;;;1.00;92.89
62655;BME280;48717;55.556;37.816;2024-01-30T12:50:19;100561.63;;;0.99;93.59
62655;BME280;48717;55.556;37.816;2024-01-30T12:52:46;100558.06;;;0.97;93.53
62655;BME280;48717;55.556;37.816;2024-01-30T12:55:17;100559.69;;;0.95;93.03
62655;BME280;48717;55.556;37.816;2024-01-30T12:57:45;100548.06;;;0.87;93.46